createdAt,value
2023-01-29T00:02:19.808Z,13.40
2023-01-29T00:04:47.284Z,15.10
2023-01-29T00:07:14.814Z,14.60
2023-01-29T00:09:42.148Z,14.00
2023-01-29T00:12:09.648Z,13.40
2023-01-29T00:14:37.002Z,14.80
2023-01-29T00:17:04.487Z,13.60
2023-01-29T00:19:31.853Z,14.90
2023-01-29T00:21:59.217Z,14.40
2023-01-29T00:24:26.605Z,13.30
2023-01-29T00:26:54.026Z,15.00
2023-01-29T00:29:22.040Z,14.70
2023-01-29T00:31:49.760Z,15.10
2023-01-29T00:34:17.548Z,15.20
2023-01-29T00:36:45.676Z,14.80
2023-01-29T00:39:13.360Z,15.00
2023-01-29T00:41:59.341Z,14.50
2023-01-29T00:44:45.311Z,15.20
2023-01-29T00:47:31.005Z,15.50
2023-01-29T00:49:58.443Z,15.00
2023-01-29T00:52:26.792Z,15.90
2023-01-29T00:54:57.713Z,15.20
2023-01-29T00:57:27.613Z,15.40
2023-01-29T00:59:55.119Z,15.40
2023-01-29T01:02:42.051Z,14.90
2023-01-29T01:05:13.999Z,13.70
2023-01-29T01:07:41.414Z,16.10
2023-01-29T01:10:22.943Z,16.20
2023-01-29T01:15:40.535Z,15.20
2023-01-29T01:18:08.083Z,14.70
2023-01-29T01:20:36.896Z,14.90
2023-01-29T01:23:04.625Z,14.50
2023-01-29T01:25:32.145Z,15.70
2023-01-29T01:30:27.259Z,16.20
2023-01-29T01:32:54.761Z,15.30
2023-01-29T01:35:22.186Z,16.00
2023-01-29T01:37:49.636Z,17.00
2023-01-29T01:40:23.795Z,14.90
2023-01-29T01:43:00.294Z,15.10
2023-01-29T01:45:37.230Z,15.70
2023-01-29T01:48:13.458Z,16.60
2023-01-29T01:51:03.484Z,15.40
2023-01-29T01:53:38.736Z,14.70
2023-01-29T01:56:24.805Z,16.20
2023-01-29T01:58:58.172Z,15.50
2023-01-29T02:01:30.140Z,16.10
2023-01-29T02:04:21.784Z,15.30
2023-01-29T02:09:43.078Z,15.60
2023-01-29T02:12:16.322Z,16.10
2023-01-29T02:14:44.790Z,15.10
2023-01-29T02:17:16.070Z,17.60
2023-01-29T02:20:20.810Z,15.60
2023-01-29T02:23:27.101Z,17.20
2023-01-29T02:26:17.234Z,16.10
2023-01-29T02:28:56.150Z,17.70
2023-01-29T02:31:41.739Z,15.50
2023-01-29T02:35:14.854Z,16.70
2023-01-29T02:37:55.998Z,15.70
2023-01-29T02:40:59.661Z,17.00
2023-01-29T02:43:54.137Z,15.50
2023-01-29T02:46:34.003Z,16.70
2023-01-29T02:49:25.067Z,15.70
2023-01-29T02:52:11.034Z,17.50
2023-01-29T02:54:49.536Z,16.30
2023-01-29T02:57:24.345Z,15.30
2023-01-29T03:00:14.323Z,17.30
2023-01-29T03:02:53.766Z,15.90
2023-01-29T03:05:45.866Z,16.20
2023-01-29T03:08:43.457Z,14.70
2023-01-29T03:11:15.282Z,17.00
2023-01-29T03:13:59.980Z,16.20
2023-01-29T03:16:33.633Z,16.10
2023-01-29T03:19:09.274Z,16.00
2023-01-29T03:21:59.793Z,16.80
2023-01-29T03:25:14.680Z,16.70
2023-01-29T03:28:07.151Z,17.00
2023-01-29T03:31:04.711Z,16.00
2023-01-29T03:33:41.090Z,16.20
2023-01-29T03:37:09.298Z,16.50
2023-01-29T03:39:37.036Z,16.60
2023-01-29T03:42:48.434Z,17.30
2023-01-29T03:45:27.937Z,17.70
2023-01-29T03:48:20.398Z,16.10
2023-01-29T03:51:11.929Z,16.40
2023-01-29T03:53:50.061Z,15.70
2023-01-29T03:56:36.667Z,17.20
2023-01-29T03:59:24.353Z,17.10
2023-01-29T04:02:01.007Z,16.40
2023-01-29T04:04:36.882Z,18.30
2023-01-29T04:07:13.932Z,16.60
2023-01-29T04:09:52.664Z,16.70
2023-01-29T04:12:26.158Z,16.00
2023-01-29T04:14:54.947Z,16.50
2023-01-29T04:17:37.990Z,16.20
2023-01-29T04:20:06.383Z,17.40
2023-01-29T04:22:40.158Z,16.60
2023-01-29T04:25:16.032Z,16.00
2023-01-29T04:28:03.200Z,17.50
2023-01-29T04:30:48.475Z,18.00
2023-01-29T04:33:40.455Z,16.00
2023-01-29T04:36:42.226Z,16.00
2023-01-29T04:42:14.361Z,15.60
2023-01-29T04:45:06.769Z,16.60
2023-01-29T04:47:54.838Z,16.90
2023-01-29T04:51:24.975Z,17.10
2023-01-29T04:54:12.491Z,16.70
2023-01-29T04:57:01.848Z,18.00
2023-01-29T04:59:52.496Z,17.60
2023-01-29T05:02:24.544Z,16.50
2023-01-29T05:04:54.309Z,17.10
2023-01-29T05:07:24.630Z,16.40
2023-01-29T05:09:52.317Z,16.80
2023-01-29T05:12:19.741Z,16.80
2023-01-29T05:14:49.410Z,17.10
2023-01-29T05:17:20.244Z,17.90
2023-01-29T05:19:47.952Z,17.30
2023-01-29T05:22:18.095Z,17.70
2023-01-29T05:24:46.584Z,17.40
2023-01-29T05:27:42.697Z,16.90
2023-01-29T05:30:11.454Z,18.10
2023-01-29T05:32:39.809Z,19.20
2023-01-29T05:35:07.721Z,16.90
2023-01-29T05:37:35.135Z,17.30
2023-01-29T05:40:02.544Z,17.50
2023-01-29T05:42:29.985Z,17.60
2023-01-29T05:44:57.327Z,18.00
2023-01-29T05:47:24.809Z,18.10
2023-01-29T05:49:52.174Z,17.20
2023-01-29T05:52:19.510Z,19.20
2023-01-29T05:54:46.919Z,17.70
2023-01-29T05:57:14.963Z,17.20
2023-01-29T05:59:42.384Z,18.40
2023-01-29T06:02:09.839Z,18.00
2023-01-29T06:04:37.487Z,17.90
2023-01-29T06:07:05.296Z,18.40
2023-01-29T06:09:32.736Z,17.90
2023-01-29T06:12:00.137Z,15.90
2023-01-29T06:14:27.587Z,17.20
2023-01-29T06:16:54.936Z,17.70
2023-01-29T06:19:22.363Z,18.50
2023-01-29T06:21:49.714Z,18.70
2023-01-29T06:24:17.237Z,17.50
2023-01-29T06:26:44.725Z,18.90
2023-01-29T06:29:12.154Z,18.70
2023-01-29T06:31:40.513Z,17.50
2023-01-29T06:34:08.843Z,17.70
2023-01-29T06:36:36.390Z,16.60
2023-01-29T06:39:04.583Z,18.50
2023-01-29T06:41:32.081Z,16.50
2023-01-29T06:43:59.597Z,17.60
2023-01-29T06:46:27.125Z,16.60
2023-01-29T06:48:54.512Z,16.90
2023-01-29T06:51:23.024Z,18.60
2023-01-29T06:53:50.519Z,17.10
2023-01-29T06:56:17.936Z,16.80
2023-01-29T06:58:45.317Z,17.50
2023-01-29T07:01:25.350Z,16.70
2023-01-29T07:04:00.682Z,18.40
2023-01-29T07:06:30.147Z,16.60
2023-01-29T07:08:57.603Z,16.30
2023-01-29T07:11:25.069Z,17.90
2023-01-29T07:13:52.442Z,17.50
2023-01-29T07:16:20.141Z,16.50
2023-01-29T07:18:47.715Z,16.60
2023-01-29T07:21:15.288Z,16.80
2023-01-29T07:23:42.816Z,17.00
2023-01-29T07:26:11.304Z,19.20
2023-01-29T07:28:39.979Z,18.10
2023-01-29T07:31:08.590Z,17.70
2023-01-29T07:33:36.015Z,16.70
2023-01-29T07:36:08.536Z,17.80
2023-01-29T07:38:35.981Z,17.70
2023-01-29T07:41:03.673Z,17.80
2023-01-29T07:43:31.046Z,17.20
2023-01-29T07:46:03.301Z,19.30
2023-01-29T07:48:30.648Z,17.80
2023-01-29T07:50:59.073Z,17.70
2023-01-29T07:53:28.049Z,18.50
2023-01-29T07:55:56.143Z,17.70
2023-01-29T07:58:23.662Z,18.30
2023-01-29T08:00:51.175Z,18.10
2023-01-29T08:03:22.447Z,18.50
2023-01-29T08:05:50.033Z,20.30
2023-01-29T08:08:17.543Z,19.50
2023-01-29T08:10:44.998Z,20.40
2023-01-29T08:13:12.414Z,20.60
2023-01-29T08:15:45.263Z,21.10
2023-01-29T08:18:14.126Z,21.50
2023-01-29T08:20:41.497Z,22.90
2023-01-29T08:23:16.402Z,20.80
2023-01-29T08:25:44.258Z,22.40
2023-01-29T08:28:12.435Z,21.90
2023-01-29T08:30:40.154Z,23.20
2023-01-29T08:33:07.670Z,21.20
2023-01-29T08:35:35.195Z,21.30
2023-01-29T08:38:04.818Z,22.90
2023-01-29T08:40:34.699Z,22.10
2023-01-29T08:43:09.152Z,21.20
2023-01-29T08:45:41.654Z,22.50
2023-01-29T08:48:09.855Z,21.00
2023-01-29T08:50:38.036Z,22.00
2023-01-29T08:53:08.688Z,21.50
2023-01-29T08:55:38.420Z,21.80
2023-01-29T08:58:08.269Z,22.30
2023-01-29T09:00:35.927Z,21.80
2023-01-29T09:03:03.903Z,23.00
2023-01-29T09:05:31.315Z,22.80
2023-01-29T09:07:59.128Z,23.30
2023-01-29T09:10:27.289Z,22.80
2023-01-29T09:12:54.662Z,21.60
2023-01-29T09:15:22.693Z,20.30
2023-01-29T09:17:50.271Z,21.90
2023-01-29T09:20:18.286Z,22.50
2023-01-29T09:22:46.937Z,21.20
2023-01-29T09:25:14.867Z,22.10
2023-01-29T09:27:42.590Z,21.50
2023-01-29T09:30:11.054Z,21.80
2023-01-29T09:32:54.677Z,22.90
2023-01-29T09:35:23.323Z,19.10
2023-01-29T09:37:51.965Z,20.40
2023-01-29T09:40:51.737Z,22.30
2023-01-29T09:43:36.003Z,22.60
2023-01-29T09:46:15.210Z,22.40
2023-01-29T09:48:44.883Z,22.50
2023-01-29T09:51:26.016Z,22.20
2023-01-29T09:54:23.507Z,22.60
2023-01-29T09:56:56.097Z,22.10
2023-01-29T09:59:30.375Z,23.20
2023-01-29T10:02:09.799Z,22.20
2023-01-29T10:05:01.151Z,21.60
2023-01-29T10:08:00.052Z,22.10
2023-01-29T10:10:55.356Z,22.20
2023-01-29T10:13:36.164Z,23.60
2023-01-29T10:16:21.574Z,23.80
2023-01-29T10:19:08.657Z,22.40
2023-01-29T10:21:45.774Z,23.50
2023-01-29T10:24:28.758Z,22.60
2023-01-29T10:26:56.155Z,23.00
2023-01-29T10:29:24.289Z,22.50
2023-01-29T10:32:04.730Z,22.60
2023-01-29T10:34:43.080Z,22.00
2023-01-29T10:37:19.440Z,22.50
2023-01-29T10:39:46.884Z,21.50
2023-01-29T10:42:24.422Z,22.00
2023-01-29T10:45:07.935Z,21.40
2023-01-29T10:48:21.301Z,21.40
2023-01-29T10:51:12.062Z,20.80
2023-01-29T10:54:14.279Z,21.60
2023-01-29T10:57:28.013Z,21.70
2023-01-29T11:00:17.097Z,21.30
2023-01-29T11:02:47.849Z,21.50
2023-01-29T11:05:38.909Z,21.20
2023-01-29T11:08:19.880Z,21.00
2023-01-29T11:11:17.353Z,20.90
2023-01-29T11:13:58.743Z,20.60
2023-01-29T11:16:30.193Z,21.40
2023-01-29T11:19:01.156Z,21.30
2023-01-29T11:21:29.789Z,20.30
2023-01-29T11:24:18.668Z,20.40
2023-01-29T11:26:50.037Z,20.10
2023-01-29T11:32:00.225Z,19.70
2023-01-29T11:34:27.870Z,19.60
2023-01-29T11:37:05.121Z,20.40
2023-01-29T11:39:32.888Z,19.20
2023-01-29T11:42:08.511Z,19.00
2023-01-29T11:44:42.948Z,19.10
2023-01-29T11:47:25.942Z,18.60
2023-01-29T11:50:00.718Z,18.00
2023-01-29T11:52:38.472Z,20.10
2023-01-29T11:55:15.273Z,19.50
2023-01-29T11:57:47.026Z,18.40
2023-01-29T12:00:27.140Z,17.80
2023-01-29T12:03:15.369Z,17.70
2023-01-29T12:05:56.484Z,10.30
2023-01-29T12:08:24.994Z,8.30
2023-01-29T12:11:08.540Z,7.80
2023-01-29T12:13:36.242Z,6.90
2023-01-29T12:16:18.814Z,7.00
2023-01-29T12:18:56.778Z,6.80
2023-01-29T12:21:35.253Z,7.10
2023-01-29T12:24:40.373Z,7.60
2023-01-29T12:27:17.556Z,7.40
2023-01-29T12:30:17.096Z,7.70
2023-01-29T12:32:50.025Z,7.20
2023-01-29T12:35:43.573Z,8.00
2023-01-29T12:38:19.369Z,7.10
2023-01-29T12:41:21.585Z,7.50
2023-01-29T12:43:57.624Z,7.60
2023-01-29T12:46:29.767Z,6.90
2023-01-29T12:49:02.025Z,6.50
2023-01-29T12:51:40.977Z,6.30
2023-01-29T12:54:22.857Z,5.90
2023-01-29T12:56:56.876Z,6.10
2023-01-29T12:59:43.269Z,6.20
2023-01-29T13:02:40.360Z,6.00
2023-01-29T13:05:23.058Z,6.20
2023-01-29T13:08:03.557Z,5.10
2023-01-29T13:10:41.093Z,5.50
2023-01-29T13:13:31.807Z,5.00
2023-01-29T13:16:01.225Z,5.50
2023-01-29T13:18:46.829Z,5.60
2023-01-29T13:21:20.433Z,5.00
2023-01-29T13:23:55.829Z,5.40
2023-01-29T13:26:24.218Z,5.00
2023-01-29T13:28:52.782Z,4.60
2023-01-29T13:31:39.172Z,5.00
2023-01-29T13:34:15.755Z,5.70
2023-01-29T13:36:47.209Z,4.30
2023-01-29T13:42:17.311Z,4.80
2023-01-29T13:44:50.243Z,4.70
2023-01-29T13:47:30.069Z,4.30
2023-01-29T13:50:09.635Z,4.20
2023-01-29T13:52:43.245Z,4.30
2023-01-29T13:55:13.674Z,4.40
2023-01-29T13:57:43.822Z,4.60
2023-01-29T14:00:25.072Z,4.80
2023-01-29T14:02:55.475Z,4.50
2023-01-29T14:05:31.931Z,4.60
2023-01-29T14:08:14.298Z,4.70
2023-01-29T14:10:43.427Z,4.60
2023-01-29T14:13:19.567Z,4.60
2023-01-29T14:15:58.996Z,3.90
2023-01-29T14:18:28.460Z,4.70
2023-01-29T14:21:20.676Z,4.80
2023-01-29T14:23:50.378Z,5.80
2023-01-29T14:26:38.055Z,5.20
2023-01-29T14:29:35.100Z,5.50
2023-01-29T14:32:19.665Z,5.20
2023-01-29T14:34:54.546Z,5.80
2023-01-29T14:37:29.191Z,5.50
2023-01-29T14:40:06.290Z,6.00
2023-01-29T14:42:45.453Z,5.90
2023-01-29T14:45:25.470Z,5.30
2023-01-29T14:47:59.551Z,5.10
2023-01-29T14:50:32.896Z,5.50
2023-01-29T14:54:03.057Z,5.20
2023-01-29T14:56:37.401Z,5.70
2023-01-29T14:59:20.884Z,4.90
2023-01-29T15:01:55.315Z,5.40
2023-01-29T15:04:33.645Z,5.30
2023-01-29T15:07:17.999Z,5.00
2023-01-29T15:10:01.332Z,5.20
2023-01-29T15:12:55.730Z,5.00
2023-01-29T15:15:53.126Z,5.30
2023-01-29T15:18:39.778Z,5.10
2023-01-29T15:21:19.120Z,5.60
2023-01-29T15:23:50.601Z,4.80
2023-01-29T15:29:04.278Z,4.70
2023-01-29T15:31:32.507Z,4.50
2023-01-29T15:34:06.745Z,4.70
2023-01-29T15:36:34.411Z,4.80
2023-01-29T15:39:25.008Z,5.80
2023-01-29T15:42:13.293Z,6.60
2023-01-29T15:44:46.450Z,5.40
2023-01-29T15:47:15.299Z,5.60
2023-01-29T15:49:45.814Z,6.30
2023-01-29T15:52:24.815Z,6.90
2023-01-29T15:54:53.129Z,6.20
2023-01-29T15:57:25.469Z,6.20
2023-01-29T15:59:56.381Z,6.90
2023-01-29T16:02:38.310Z,6.60
2023-01-29T16:05:13.208Z,6.10
2023-01-29T16:07:42.235Z,5.40
2023-01-29T16:10:20.418Z,5.80
2023-01-29T16:12:53.158Z,5.80
2023-01-29T16:15:34.251Z,5.90
2023-01-29T16:18:05.207Z,5.90
2023-01-29T16:20:46.046Z,5.50
2023-01-29T16:23:25.468Z,5.50
2023-01-29T16:25:53.711Z,6.30
2023-01-29T16:28:21.511Z,6.30
2023-01-29T16:30:58.170Z,6.80
2023-01-29T16:33:45.475Z,6.30
2023-01-29T16:36:19.049Z,8.20
2023-01-29T16:38:54.204Z,8.70
2023-01-29T16:41:21.539Z,8.60
2023-01-29T16:43:56.050Z,8.20
2023-01-29T16:46:24.690Z,7.10
2023-01-29T16:48:53.356Z,7.30
2023-01-29T16:51:20.658Z,8.00
2023-01-29T16:54:23.387Z,8.00
2023-01-29T16:56:56.123Z,8.10
2023-01-29T16:59:32.914Z,8.90
2023-01-29T17:02:00.502Z,8.80
2023-01-29T17:04:28.352Z,8.30
2023-01-29T17:06:59.922Z,8.10
2023-01-29T17:09:32.857Z,7.80
2023-01-29T17:12:05.465Z,8.00
2023-01-29T17:14:35.959Z,7.60
2023-01-29T17:17:15.539Z,7.10
2023-01-29T17:19:43.038Z,7.10
2023-01-29T17:22:14.806Z,8.60
2023-01-29T17:24:42.635Z,7.50
2023-01-29T17:27:20.524Z,7.70
2023-01-29T17:29:48.798Z,7.40
2023-01-29T17:32:20.012Z,7.50
2023-01-29T17:34:47.513Z,8.10
2023-01-29T17:37:16.650Z,7.90
2023-01-29T17:39:45.777Z,7.80
2023-01-29T17:42:15.172Z,7.80
2023-01-29T17:44:43.219Z,9.00
2023-01-29T17:47:15.146Z,8.20
2023-01-29T17:49:43.015Z,9.10
2023-01-29T17:52:10.573Z,8.70
2023-01-29T17:54:38.142Z,8.90
2023-01-29T17:57:05.547Z,8.80
2023-01-29T17:59:33.972Z,9.30
2023-01-29T18:02:01.435Z,8.90
2023-01-29T18:04:28.830Z,8.80
2023-01-29T18:06:58.099Z,8.40
2023-01-29T18:09:25.672Z,9.30
2023-01-29T18:11:53.641Z,9.60
2023-01-29T18:14:21.040Z,8.90
2023-01-29T18:16:48.545Z,8.90
2023-01-29T18:19:28.235Z,8.80
2023-01-29T18:21:56.276Z,9.90
2023-01-29T18:24:26.488Z,9.80
2023-01-29T18:26:53.990Z,8.30
2023-01-29T18:29:21.363Z,9.10
2023-01-29T18:31:49.662Z,8.80
2023-01-29T18:34:17.332Z,9.00
2023-01-29T18:36:47.670Z,8.60
2023-01-29T18:39:15.665Z,8.20
2023-01-29T18:41:43.250Z,9.60
2023-01-29T18:44:11.705Z,9.10
2023-01-29T18:46:39.098Z,8.20
2023-01-29T18:49:06.569Z,8.40
2023-01-29T18:51:34.018Z,8.10
2023-01-29T18:54:01.478Z,8.60
2023-01-29T18:56:28.878Z,8.00
2023-01-29T18:58:56.516Z,8.00
2023-01-29T19:01:24.173Z,8.10
2023-01-29T19:03:52.145Z,7.90
2023-01-29T19:06:19.637Z,7.90
2023-01-29T19:08:47.454Z,8.90
2023-01-29T19:11:14.908Z,8.50
2023-01-29T19:13:42.946Z,8.30
2023-01-29T19:16:12.639Z,9.00
2023-01-29T19:18:40.156Z,9.70
2023-01-29T19:21:11.631Z,9.60
2023-01-29T19:26:07.856Z,8.40
2023-01-29T19:28:36.695Z,9.60
2023-01-29T19:31:04.282Z,9.50
2023-01-29T19:33:31.967Z,9.40
2023-01-29T19:36:00.170Z,9.00
2023-01-29T19:38:28.555Z,8.30
2023-01-29T19:40:55.896Z,7.50
2023-01-29T19:43:23.871Z,8.60
2023-01-29T19:46:00.755Z,9.00
2023-01-29T19:48:28.617Z,8.80
2023-01-29T19:50:58.962Z,9.00
2023-01-29T19:53:28.972Z,9.60
2023-01-29T19:56:02.414Z,9.50
2023-01-29T19:58:30.111Z,9.70
2023-01-29T20:01:00.508Z,9.80
2023-01-29T20:03:29.467Z,9.70
2023-01-29T20:06:03.614Z,10.60
2023-01-29T20:08:31.724Z,9.60
2023-01-29T20:10:59.423Z,10.60
2023-01-29T20:13:27.346Z,11.40
2023-01-29T20:15:55.970Z,10.60
2023-01-29T20:18:23.548Z,11.00
2023-01-29T20:20:53.138Z,11.70
2023-01-29T20:23:36.741Z,11.50
2023-01-29T20:26:11.609Z,9.80
2023-01-29T20:28:39.061Z,10.50
2023-01-29T20:31:08.412Z,11.60
2023-01-29T20:33:39.187Z,11.20
2023-01-29T20:36:10.258Z,11.00
2023-01-29T20:38:38.125Z,11.00
2023-01-29T20:41:16.392Z,12.20
2023-01-29T20:43:44.527Z,11.10
2023-01-29T20:46:12.467Z,11.20
2023-01-29T20:48:42.094Z,11.30
2023-01-29T20:51:16.607Z,11.10
2023-01-29T20:53:46.640Z,10.60
2023-01-29T20:56:16.789Z,10.60
2023-01-29T20:58:45.195Z,9.70
2023-01-29T21:01:17.073Z,10.00
2023-01-29T21:03:44.989Z,8.80
2023-01-29T21:06:13.365Z,9.70
2023-01-29T21:08:41.207Z,10.50
2023-01-29T21:11:09.478Z,10.50
2023-01-29T21:13:37.601Z,10.20
2023-01-29T21:16:05.823Z,9.70
2023-01-29T21:18:33.537Z,9.80
2023-01-29T21:21:00.888Z,9.80
2023-01-29T21:23:28.483Z,9.80
2023-01-29T21:26:04.421Z,9.70
2023-01-29T21:28:32.094Z,10.00
2023-01-29T21:31:10.133Z,9.20
2023-01-29T21:33:38.502Z,9.30
2023-01-29T21:36:06.972Z,9.90
2023-01-29T21:38:34.416Z,9.80
2023-01-29T21:41:05.889Z,9.00
2023-01-29T21:46:06.107Z,9.60
2023-01-29T21:48:33.567Z,9.70
2023-01-29T21:51:01.088Z,9.00
2023-01-29T21:53:28.511Z,10.30
2023-01-29T21:56:00.983Z,9.50
2023-01-29T21:58:29.111Z,10.30
2023-01-29T22:00:57.255Z,10.10
2023-01-29T22:03:47.084Z,9.80
2023-01-29T22:06:15.538Z,9.80
2023-01-29T22:08:43.014Z,9.90
2023-01-29T22:11:10.561Z,9.50
2023-01-29T22:13:38.248Z,10.30
2023-01-29T22:16:06.352Z,10.00
2023-01-29T22:18:34.587Z,9.70
2023-01-29T22:21:02.946Z,9.60
2023-01-29T22:23:31.917Z,9.80
2023-01-29T22:26:07.661Z,11.00
2023-01-29T22:28:35.207Z,10.50
2023-01-29T22:31:04.690Z,10.60
2023-01-29T22:33:33.509Z,10.00
2023-01-29T22:36:01.127Z,11.00
2023-01-29T22:38:29.045Z,10.50
2023-01-29T22:40:57.847Z,11.20
2023-01-29T22:43:29.193Z,11.30
2023-01-29T22:48:24.261Z,10.20
2023-01-29T22:51:19.369Z,10.20
2023-01-29T22:53:56.132Z,10.80
2023-01-29T22:56:26.203Z,10.80
2023-01-29T22:58:56.221Z,10.70
2023-01-29T23:01:28.147Z,11.60
2023-01-29T23:03:56.166Z,10.90
2023-01-29T23:06:23.832Z,11.50
2023-01-29T23:08:51.466Z,11.30
2023-01-29T23:11:21.495Z,11.00
2023-01-29T23:13:55.580Z,10.90
2023-01-29T23:16:27.719Z,11.10
2023-01-29T23:18:56.958Z,11.50
2023-01-29T23:21:26.294Z,11.80
2023-01-29T23:23:55.399Z,11.40
2023-01-29T23:26:41.366Z,11.10
2023-01-29T23:29:09.307Z,11.70
2023-01-29T23:31:36.776Z,11.60
2023-01-29T23:34:04.238Z,12.00
2023-01-29T23:36:31.819Z,12.40
2023-01-29T23:38:59.135Z,11.80
2023-01-29T23:41:26.550Z,12.10
2023-01-29T23:43:54.157Z,11.80
2023-01-29T23:46:21.622Z,12.60
2023-01-29T23:48:49.188Z,12.40
2023-01-29T23:51:16.632Z,11.30
2023-01-29T23:53:44.012Z,12.50
2023-01-29T23:56:11.917Z,12.70
2023-01-29T23:58:39.704Z,12.50
